Pompano Beach, Florida
Current Conditions -  °F | °C
As of 7:00 AM on Monday 24 Nov 2014 (Local Time) from KFXE Reporting Station
Overcast Overcast  
Wind Chill: 77°   Ceiling: 1600
Heat Index: 78°   Visibility: 7mi
Dew Point: 74°   Wind: 0mph
Humidity: 90%   Direction: NA
Pressure: 29.98"   Gusts: NA
Location:  26.23°N, 80.16°W
Report Text: KFXE 241200Z 00000KT 7SM OVC016 25/23 A2998 RMK AO2 T02500233 $
Loading
Personal Weather Stations






























Interactive Weather Map New forecast layout! Learn more

10-Day Weather Forecast

Advertisements
Track Severe Weather on mobile